Time;durP1;ratioP1;P1;durP2;ratioP2;P2;SDS_P1;SDS_P2;PMS_P1;PMS_P2;Temp;Humidity;BMP_temperature;BMP_pressure;BME280_temperature;BME280_humidity;BME280_pressure;Samples;Min_cycle;Max_cycle;Signal;HPM_P1;HPM_P2
2022/06/01 00:38:23;;;;;;;;;;;;;;;;;;;;;
2022/06/01 00:40:52;;;;;;;6.38;3.50;;;10.40;99.90;;;;;;6221220;23;20017;-92
2022/06/01 00:43:44;;;;;;;7.33;4.03;;;10.50;99.90;;;;;;6171366;23;20079;-91
2022/06/01 00:49:20;;;;;;;6.60;3.45;;;10.50;99.90;;;;;;6202344;23;20522;-92
2022/06/01 00:52:09;;;;;;;6.05;3.70;;;10.50;99.90;;;;;;6174215;22;20020;-93
2022/06/01 00:54:55;;;;;;;6.88;3.65;;;10.50;99.90;;;;;;6250649;22;20076;-92
2022/06/01 00:57:21;;;;;;;6.55;3.58;;;10.50;99.90;;;;;;6196756;23;20087;-93
2022/06/01 00:59:46;;;;;;;7.30;4.20;;;10.50;99.90;;;;;;6194455;23;20016;-95
2022/06/01 03:31:20;;;;;;;8.20;4.65;;;10.50;99.90;;;;;;6215535;23;20061;-95
2022/06/01 03:33:46;;;;;;;9.60;5.90;;;10.50;99.90;;;;;;6187405;22;20025;-93
2022/06/01 03:36:11;;;;;;;9.20;5.87;;;10.50;99.90;;;;;;6210393;22;20013;-93
2022/06/01 03:46:24;;;;;;;9.50;5.82;;;10.50;99.90;;;;;;6217349;22;20036;-91
2022/06/01 03:48:50;;;;;;;8.48;5.25;;;10.50;99.90;;;;;;6193343;23;20065;-94
2022/06/01 06:19:43;;;;;;;13.00;8.40;;;12.00;99.90;;;;;;6231354;22;19979;-95
2022/06/01 06:23:04;;;;;;;13.48;8.70;;;12.00;99.90;;;;;;6332336;22;20060;-93
2022/06/01 08:14:31;;;;;;;6.00;3.08;;;11.40;99.90;;;;;;6242485;22;20016;-95
2022/06/01 10:32:35;;;;;;;3.25;1.50;;;13.70;99.90;;;;;;6260588;22;20099;-96
2022/06/01 10:35:20;;;;;;;2.90;1.33;;;13.60;99.90;;;;;;6327421;22;20353;-95
2022/06/01 10:37:59;;;;;;;1.90;0.82;;;13.60;99.90;;;;;;6327292;22;20044;-96
2022/06/01 10:59:41;;;;;;;2.40;1.30;;;14.30;99.90;;;;;;6266611;22;20020;-96
2022/06/01 11:02:52;;;;;;;3.08;1.27;;;14.30;99.90;;;;;;6240474;23;20049;-95
2022/06/01 11:31:36;;;;;;;2.38;1.05;;;14.50;99.90;;;;;;6257728;22;20024;-91
2022/06/01 11:34:46;;;;;;;4.35;1.38;;;14.50;99.90;;;;;;6237280;22;20048;-96
2022/06/01 11:37:41;;;;;;;2.47;1.25;;;14.40;99.90;;;;;;6239536;22;20004;-95
2022/06/01 11:40:07;;;;;;;1.63;0.80;;;14.50;99.90;;;;;;6233905;23;20004;-93
2022/06/01 11:42:37;;;;;;;2.10;0.95;;;14.50;99.90;;;;;;6238219;22;20017;-90
2022/06/01 11:45:20;;;;;;;2.55;1.02;;;14.50;99.90;;;;;;6240575;22;20012;-95
2022/06/01 11:47:53;;;;;;;1.70;0.80;;;14.50;99.90;;;;;;6233331;22;20034;-96
2022/06/01 15:22:02;;;;;;;2.08;0.70;;;14.60;99.90;;;;;;6254958;22;20024;-96
2022/06/01 15:24:28;;;;;;;1.25;0.77;;;14.50;99.90;;;;;;6330281;22;20031;-95
2022/06/01 15:26:57;;;;;;;1.00;0.50;;;14.50;99.90;;;;;;6332752;22;20068;-92
2022/06/01 15:48:23;;;;;;;1.05;0.60;;;14.30;99.90;;;;;;6247623;22;20337;-94
2022/06/01 15:51:45;;;;;;;;;;;;;;;;;;;;;
2022/06/01 16:01:13;;;;;;;1.30;0.60;;;14.70;99.90;;;;;;6244764;23;20344;-95
2022/06/01 16:03:39;;;;;;;1.17;0.70;;;14.80;99.90;;;;;;6222648;22;20016;-95
2022/06/01 16:06:08;;;;;;;2.08;0.80;;;14.80;99.90;;;;;;6222656;23;20023;-95
2022/06/01 16:16:16;;;;;;;1.25;0.63;;;14.70;99.90;;;;;;6280233;22;20167;-95
2022/06/01 16:18:43;;;;;;;1.42;0.77;;;14.70;99.90;;;;;;6251072;22;20024;-92
2022/06/01 16:21:10;;;;;;;1.65;0.90;;;14.70;99.90;;;;;;6250828;22;20016;-96
2022/06/01 16:23:36;;;;;;;1.80;0.90;;;14.80;99.90;;;;;;6252631;22;20051;-96
2022/06/01 16:26:05;;;;;;;1.85;1.00;;;14.80;99.90;;;;;;6255131;22;20023;-93
2022/06/01 16:28:31;;;;;;;2.08;1.20;;;14.80;99.90;;;;;;6255317;22;20020;-93
2022/06/01 16:30:57;;;;;;;2.75;1.20;;;14.90;99.90;;;;;;6275459;22;20360;-91
2022/06/01 16:33:34;;;;;;;1.90;0.82;;;15.00;99.90;;;;;;6254271;22;20019;-94
2022/06/01 16:43:46;;;;;;;1.63;0.98;;;15.20;99.90;;;;;;6246377;22;20024;-93
2022/06/01 16:46:12;;;;;;;1.95;0.90;;;15.10;99.90;;;;;;6225607;23;20107;-94
2022/06/01 16:48:39;;;;;;;2.25;1.10;;;15.20;99.90;;;;;;6229479;23;20121;-95
2022/06/01 17:14:48;;;;;;;2.17;1.10;;;14.90;99.90;;;;;;6264227;22;20020;-89
2022/06/01 17:17:36;;;;;;;1.98;1.00;;;15.00;99.90;;;;;;6232493;22;20026;-96
2022/06/01 17:23:50;;;;;;;1.85;0.88;;;15.00;99.90;;;;;;6237195;22;20453;-94
2022/06/01 17:30:50;;;;;;;1.60;0.80;;;14.90;99.90;;;;;;6230130;22;20107;-95
2022/06/01 19:44:53;;;;;;;1.15;0.57;;;13.20;99.90;;;;;;6242316;22;20380;-95
2022/06/01 19:47:19;;;;;;;1.23;0.60;;;13.20;99.90;;;;;;6191480;22;20020;-94
2022/06/01 19:49:45;;;;;;;1.57;0.60;;;13.20;99.90;;;;;;6216325;23;20072;-92
2022/06/01 19:52:12;;;;;;;1.15;0.50;;;13.10;99.90;;;;;;6192067;23;20265;-94
2022/06/01 19:54:37;;;;;;;1.50;0.60;;;13.10;99.90;;;;;;6215573;23;20435;-96
2022/06/01 19:57:17;;;;;;;0.87;0.50;;;13.00;99.90;;;;;;6193240;23;20052;-95
2022/06/01 20:00:12;;;;;;;1.75;0.50;;;13.00;99.90;;;;;;6193265;22;20272;-94
2022/06/01 20:02:51;;;;;;;1.70;0.60;;;12.90;99.90;;;;;;6191985;22;20072;-92
2022/06/01 20:05:25;;;;;;;1.15;0.60;;;12.90;99.90;;;;;;6216457;23;20020;-93
2022/06/01 20:07:57;;;;;;;3.83;0.80;;;12.80;99.90;;;;;;6191330;22;20020;-95
2022/06/01 20:10:24;;;;;;;1.75;0.65;;;12.80;99.90;;;;;;6191186;23;20027;-94
2022/06/01 20:21:40;;;;;;;2.33;0.82;;;12.40;99.90;;;;;;6404742;22;20041;-94
2022/06/01 20:24:08;;;;;;;2.38;1.17;;;12.40;99.90;;;;;;6381930;22;20018;-90
2022/06/01 20:26:37;;;;;;;3.63;1.10;;;12.30;99.90;;;;;;6381648;22;20009;-93
2022/06/01 20:29:08;;;;;;;2.40;1.10;;;12.20;99.90;;;;;;6382291;22;20121;-92
2022/06/01 20:31:58;;;;;;;1.85;0.90;;;12.20;99.90;;;;;;6408326;22;20014;-94
2022/06/01 20:35:26;;;;;;;;;;;;;;;;;;;;;
2022/06/01 23:08:34;;;;;;;4.20;1.80;;;9.90;99.90;;;;;;6240636;22;20090;-92
2022/06/01 23:11:00;;;;;;;4.47;1.92;;;9.90;99.90;;;;;;6190558;23;20031;-90
2022/06/01 23:13:29;;;;;;;3.30;1.53;;;9.90;99.90;;;;;;6190487;23;20024;-89
2022/06/01 23:15:58;;;;;;;4.85;1.75;;;9.90;99.90;;;;;;6189601;23;20028;-90
2022/06/01 23:18:23;;;;;;;4.32;2.17;;;9.90;99.90;;;;;;6190154;23;20067;-90
2022/06/01 23:20:49;;;;;;;4.30;1.90;;;10.00;99.90;;;;;;6190697;23;20020;-90
2022/06/01 23:23:37;;;;;;;5.13;2.40;;;9.90;99.90;;;;;;6191836;23;20395;-90
2022/06/01 23:26:08;;;;;;;3.60;1.77;;;10.00;99.90;;;;;;6190394;23;20263;-90
2022/06/01 23:28:34;;;;;;;4.72;2.17;;;9.90;99.90;;;;;;6190029;23;20012;-90
2022/06/01 23:31:27;;;;;;;4.10;1.60;;;9.90;99.90;;;;;;6190051;23;20340;-91
2022/06/01 23:34:13;;;;;;;3.72;1.75;;;9.80;99.90;;;;;;6190181;23;20251;-90
2022/06/01 23:36:51;;;;;;;3.38;1.80;;;9.80;99.90;;;;;;6190289;23;20031;-91
2022/06/01 23:39:35;;;;;;;3.85;2.00;;;9.70;99.90;;;;;;6189977;23;20445;-90
2022/06/01 23:42:18;;;;;;;5.43;2.22;;;9.70;99.90;;;;;;6189898;23;20023;-91
2022/06/01 23:45:26;;;;;;;4.90;2.30;;;9.70;99.90;;;;;;6190011;23;20012;-92
2022/06/01 23:48:12;;;;;;;5.28;2.78;;;9.70;99.90;;;;;;6190103;23;20016;-90
2022/06/01 23:50:55;;;;;;;4.70;2.45;;;9.70;99.90;;;;;;6189581;23;20103;-90
2022/06/01 23:53:45;;;;;;;6.47;3.25;;;9.80;99.90;;;;;;6189894;23;20449;-90
2022/06/01 23:56:50;;;;;;;6.63;2.92;;;9.80;99.90;;;;;;6189986;23;20021;-91
2022/06/01 23:59:31;;;;;;;4.65;2.45;;;9.80;99.90;;;;;;6189773;23;20473;-90
